Time;durP1;ratioP1;P1;durP2;ratioP2;P2;SDS_P1;SDS_P2;PMS_P1;PMS_P2;Temp;Humidity;BMP_temperature;BMP_pressure;BME280_temperature;BME280_humidity;BME280_pressure;Samples;Min_cycle;Max_cycle;Signal;HPM_P1;HPM_P2
2022/01/03 00:02:11;;;;;;;49.35;28.33;;;;;;;;;;6259844;28;20124;-65
2022/01/03 00:05:13;;;;;;;44.50;27.65;;;;;;;;;;6254362;28;20124;-66
2022/01/03 00:08:15;;;;;;;48.88;28.60;;;;;;;;;;6256720;28;20044;-65
2022/01/03 00:11:20;;;;;;;44.92;28.20;;;;;;;;;;6254066;28;20497;-65
2022/01/03 00:14:24;;;;;;;43.13;27.08;;;;;;;;;;6254135;28;20127;-65
2022/01/03 00:17:26;;;;;;;49.05;29.25;;;;;;;;;;6259544;28;20041;-65
2022/01/03 00:20:28;;;;;;;48.80;27.02;;;;;;;;;;6260783;28;20132;-65
2022/01/03 00:23:33;;;;;;;47.28;29.08;;;;;;;;;;6257665;28;20050;-65
2022/01/03 00:26:37;;;;;;;47.15;28.95;;;;;;;;;;6263681;28;20073;-65
2022/01/03 00:29:45;;;;;;;44.67;27.85;;;;;;;;;;6262774;28;20170;-65
2022/01/03 00:32:49;;;;;;;45.60;28.15;;;;;;;;;;6262557;28;20079;-65
2022/01/03 00:35:53;;;;;;;;;;;;;;;;;;6259417;28;20584;-65
2022/01/03 00:38:56;;;;;;;45.78;26.92;;;;;;;;;;6256801;28;19925;-65
2022/01/03 00:41:58;;;;;;;45.67;28.08;;;;;;;;;;6259338;28;20461;-66
2022/01/03 00:45:01;;;;;;;45.25;27.55;;;;;;;;;;6260426;28;20045;-65
2022/01/03 00:48:07;;;;;;;42.33;26.90;;;;;;;;;;6260016;28;20198;-65
2022/01/03 00:51:08;;;;;;;42.47;27.42;;;;;;;;;;6258706;28;20475;-65
2022/01/03 00:54:11;;;;;;;41.17;27.20;;;;;;;;;;6265796;28;20199;-65
2022/01/03 00:57:31;;;;;;;44.70;27.52;;;;;;;;;;6263153;28;20187;-65
2022/01/03 01:00:36;;;;;;;42.67;27.73;;;;;;;;;;6257425;28;20105;-66
2022/01/03 01:03:39;;;;;;;42.45;26.58;;;;;;;;;;6256278;28;20052;-65
2022/01/03 01:06:41;;;;;;;40.20;25.10;;;;;;;;;;6256556;28;20122;-65
2022/01/03 01:09:45;;;;;;;38.72;25.70;;;;;;;;;;6254582;28;20113;-65
2022/01/03 01:12:47;;;;;;;38.58;25.17;;;;;;;;;;6264148;28;20524;-65
2022/01/03 01:15:49;;;;;;;36.08;24.63;;;;;;;;;;6260193;28;20179;-65
2022/01/03 01:18:51;;;;;;;36.38;24.02;;;;;;;;;;6259588;28;20155;-66
2022/01/03 01:21:53;;;;;;;38.63;24.30;;;;;;;;;;6258144;28;20136;-65
2022/01/03 01:25:22;;;;;;;32.50;22.10;;;;;;;;;;6257912;28;20174;-65
2022/01/03 01:28:21;;;;;;;34.85;22.42;;;;;;;;;;6254806;28;20041;-65
2022/01/03 01:31:24;;;;;;;34.03;22.50;;;;;;;;;;6256226;28;20048;-65
2022/01/03 01:34:29;;;;;;;33.78;22.58;;;;;;;;;;6259232;28;20183;-65
2022/01/03 01:37:30;;;;;;;33.63;22.20;;;;;;;;;;6259588;28;20128;-65
2022/01/03 01:40:34;;;;;;;32.55;22.48;;;;;;;;;;6251672;28;20568;-65
2022/01/03 01:43:37;;;;;;;28.80;20.92;;;;;;;;;;6258683;28;20513;-65
2022/01/03 01:46:44;;;;;;;33.42;20.98;;;;;;;;;;6259698;28;20124;-66
2022/01/03 01:49:47;;;;;;;32.33;22.13;;;;;;;;;;6259885;28;20064;-65
2022/01/03 01:52:51;;;;;;;32.15;21.60;;;;;;;;;;6257195;28;20128;-66
2022/01/03 01:55:56;;;;;;;31.23;20.58;;;;;;;;;;6255565;28;20183;-65
2022/01/03 01:59:10;;;;;;;32.60;20.90;;;;;;;;;;6254559;28;20049;-65
2022/01/03 02:02:16;;;;;;;28.02;20.13;;;;;;;;;;6248909;28;20060;-65
2022/01/03 02:05:22;;;;;;;29.08;19.75;;;;;;;;;;6249144;28;20227;-65
2022/01/03 02:08:27;;;;;;;31.35;20.73;;;;;;;;;;6254435;28;20081;-65
2022/01/03 02:11:42;;;;;;;26.23;18.88;;;;;;;;;;6259223;28;20398;-65
2022/01/03 02:14:46;;;;;;;26.63;19.85;;;;;;;;;;6262459;28;20551;-65
2022/01/03 02:17:49;;;;;;;34.08;20.52;;;;;;;;;;6259136;28;20060;-65
2022/01/03 02:20:53;;;;;;;31.73;19.98;;;;;;;;;;6256840;28;20139;-65
2022/01/03 02:23:54;;;;;;;27.08;18.52;;;;;;;;;;6254036;28;20114;-65
2022/01/03 02:26:56;;;;;;;28.60;17.88;;;;;;;;;;6255790;28;20131;-65
2022/01/03 02:29:57;;;;;;;30.05;19.30;;;;;;;;;;6254004;28;20127;-65
2022/01/03 02:32:59;;;;;;;29.52;18.42;;;;;;;;;;6262037;28;20179;-66
2022/01/03 02:36:04;;;;;;;32.28;18.88;;;;;;;;;;6255493;28;20449;-65
2022/01/03 02:39:06;;;;;;;32.35;17.48;;;;;;;;;;6255472;28;20461;-65
2022/01/03 02:42:08;;;;;;;25.92;17.20;;;;;;;;;;6259244;28;20159;-65
2022/01/03 02:45:13;;;;;;;30.15;18.20;;;;;;;;;;6256319;28;20056;-66
2022/01/03 02:48:14;;;;;;;33.60;18.15;;;;;;;;;;6256429;28;20048;-65
2022/01/03 02:51:17;;;;;;;29.83;17.83;;;;;;;;;;6251991;28;20116;-65
2022/01/03 02:54:19;;;;;;;47.75;17.98;;;;;;;;;;6256335;28;20083;-65
2022/01/03 02:57:23;;;;;;;50.63;17.55;;;;;;;;;;6252499;28;20160;-65
2022/01/03 03:00:25;;;;;;;;;;;;;;;;;;6257208;28;20056;-66
2022/01/03 03:03:27;;;;;;;30.40;16.80;;;;;;;;;;6250675;28;19948;-65
2022/01/03 03:06:30;;;;;;;31.75;17.17;;;;;;;;;;6254617;28;20045;-65
2022/01/03 03:09:32;;;;;;;27.60;18.00;;;;;;;;;;6254318;28;20502;-65
2022/01/03 03:12:33;;;;;;;26.02;17.77;;;;;;;;;;6255798;28;20058;-65
2022/01/03 03:15:35;;;;;;;30.75;17.45;;;;;;;;;;6254033;28;20115;-65
2022/01/03 03:18:37;;;;;;;31.20;18.20;;;;;;;;;;6254953;28;20069;-65
2022/01/03 03:21:40;;;;;;;27.73;17.35;;;;;;;;;;6253000;28;20071;-65
2022/01/03 03:24:41;;;;;;;25.88;16.55;;;;;;;;;;6257179;28;20079;-66
2022/01/03 03:27:47;;;;;;;30.00;17.17;;;;;;;;;;6251760;28;20131;-65
2022/01/03 03:30:49;;;;;;;28.33;16.83;;;;;;;;;;6251897;28;20461;-65
2022/01/03 03:33:50;;;;;;;39.78;16.90;;;;;;;;;;6251703;28;20060;-65
2022/01/03 03:36:53;;;;;;;29.98;16.33;;;;;;;;;;6256926;28;20141;-66
2022/01/03 03:39:55;;;;;;;29.98;16.35;;;;;;;;;;6255220;28;20104;-65
2022/01/03 03:42:57;;;;;;;25.85;16.73;;;;;;;;;;6252872;28;20132;-65
2022/01/03 03:45:58;;;;;;;24.55;16.10;;;;;;;;;;6253462;28;20119;-65
2022/01/03 03:49:00;;;;;;;32.03;16.30;;;;;;;;;;6254919;28;20502;-65
2022/01/03 03:52:04;;;;;;;29.30;17.08;;;;;;;;;;6250008;28;20100;-65
2022/01/03 03:55:07;;;;;;;28.98;16.35;;;;;;;;;;6252941;28;20830;-65
2022/01/03 03:58:09;;;;;;;29.35;16.02;;;;;;;;;;6251560;28;20190;-65
2022/01/03 04:01:10;;;;;;;34.28;15.70;;;;;;;;;;6254618;28;20119;-64
2022/01/03 04:04:12;;;;;;;35.38;15.73;;;;;;;;;;6253816;28;20123;-65
2022/01/03 04:07:15;;;;;;;30.60;15.93;;;;;;;;;;6258893;28;20184;-65
2022/01/03 04:10:16;;;;;;;32.13;15.38;;;;;;;;;;6255747;28;20468;-66
2022/01/03 04:13:18;;;;;;;40.65;15.35;;;;;;;;;;6255616;28;20068;-65
2022/01/03 04:16:20;;;;;;;25.95;16.83;;;;;;;;;;6261840;28;20078;-65
2022/01/03 04:19:21;;;;;;;24.90;15.63;;;;;;;;;;6258593;28;20060;-65
2022/01/03 04:22:24;;;;;;;22.92;15.25;;;;;;;;;;6259539;28;20069;-66
2022/01/03 04:25:26;;;;;;;25.77;15.02;;;;;;;;;;6258832;28;20049;-65
2022/01/03 04:28:27;;;;;;;76.15;14.98;;;;;;;;;;6259844;28;20769;-65
2022/01/03 04:31:29;;;;;;;34.33;14.88;;;;;;;;;;6257594;28;20095;-65
2022/01/03 04:34:31;;;;;;;40.83;15.50;;;;;;;;;;6260024;28;20049;-65
2022/01/03 04:37:34;;;;;;;25.60;16.30;;;;;;;;;;6257064;28;20519;-65
2022/01/03 04:40:35;;;;;;;26.27;15.55;;;;;;;;;;6254407;28;20118;-65
2022/01/03 04:43:37;;;;;;;34.58;16.00;;;;;;;;;;6261021;28;20121;-65
2022/01/03 04:46:39;;;;;;;40.75;16.52;;;;;;;;;;6256627;28;20136;-65
2022/01/03 04:49:41;;;;;;;26.95;16.55;;;;;;;;;;6255503;28;20248;-65
2022/01/03 04:52:44;;;;;;;34.45;16.65;;;;;;;;;;6255460;28;20521;-65
2022/01/03 04:55:45;;;;;;;64.40;14.82;;;;;;;;;;6258075;28;20128;-65
2022/01/03 04:58:47;;;;;;;22.23;15.15;;;;;;;;;;6259775;28;20140;-66
2022/01/03 05:01:49;;;;;;;27.65;16.20;;;;;;;;;;6257770;28;20131;-65
2022/01/03 05:04:50;;;;;;;29.10;15.88;;;;;;;;;;6255575;28;20126;-65
2022/01/03 05:07:53;;;;;;;27.08;15.93;;;;;;;;;;6261850;28;20088;-65
2022/01/03 05:10:55;;;;;;;27.77;15.90;;;;;;;;;;6256349;28;20050;-65
2022/01/03 05:13:57;;;;;;;27.17;17.35;;;;;;;;;;6257901;28;20068;-65
2022/01/03 05:16:58;;;;;;;29.15;16.95;;;;;;;;;;6257262;28;20579;-65
2022/01/03 05:20:00;;;;;;;27.65;16.40;;;;;;;;;;6258375;28;20136;-65
2022/01/03 05:23:03;;;;;;;30.27;17.08;;;;;;;;;;6259022;28;20563;-65
2022/01/03 05:26:05;;;;;;;33.15;17.90;;;;;;;;;;6257904;28;20135;-65
2022/01/03 05:29:07;;;;;;;49.67;17.10;;;;;;;;;;6261876;28;20570;-65
2022/01/03 05:32:08;;;;;;;28.77;16.88;;;;;;;;;;6264775;28;20146;-65
2022/01/03 05:35:10;;;;;;;36.83;17.27;;;;;;;;;;6261489;28;20126;-66
2022/01/03 05:38:13;;;;;;;27.45;16.88;;;;;;;;;;6258736;28;20132;-65
2022/01/03 05:41:15;;;;;;;29.23;16.52;;;;;;;;;;6259338;28;20091;-65
2022/01/03 05:44:16;;;;;;;28.38;16.77;;;;;;;;;;6261052;28;20171;-65
2022/01/03 05:47:18;;;;;;;24.05;15.50;;;;;;;;;;6262220;28;20048;-66
2022/01/03 05:50:19;;;;;;;25.40;15.13;;;;;;;;;;6265198;28;20087;-65
2022/01/03 05:53:22;;;;;;;28.75;15.48;;;;;;;;;;6262580;28;20067;-65
2022/01/03 05:56:24;;;;;;;28.85;15.85;;;;;;;;;;6261866;28;20053;-65
2022/01/03 05:59:25;;;;;;;29.30;15.18;;;;;;;;;;6261892;28;20131;-65
2022/01/03 06:02:30;;;;;;;26.85;15.07;;;;;;;;;;6262129;28;20186;-65
2022/01/03 06:05:53;;;;;;;25.98;14.88;;;;;;;;;;6257464;28;20052;-66
2022/01/03 06:08:56;;;;;;;24.20;14.32;;;;;;;;;;6255460;28;20064;-65
2022/01/03 06:11:59;;;;;;;24.05;14.63;;;;;;;;;;6254547;28;20135;-65
2022/01/03 06:15:00;;;;;;;19.70;13.07;;;;;;;;;;6258023;28;20041;-65
2022/01/03 06:18:02;;;;;;;28.42;14.38;;;;;;;;;;6258235;28;20144;-65
2022/01/03 06:21:04;;;;;;;27.48;14.18;;;;;;;;;;6255704;28;20565;-65
2022/01/03 06:24:07;;;;;;;23.98;14.93;;;;;;;;;;6257869;28;20083;-65
2022/01/03 06:27:08;;;;;;;26.75;14.80;;;;;;;;;;6254122;28;23411;-65
2022/01/03 06:30:12;;;;;;;22.20;14.55;;;;;;;;;;6256476;28;20087;-65
2022/01/03 06:33:13;;;;;;;26.52;15.82;;;;;;;;;;6255106;28;20541;-66
2022/01/03 06:36:15;;;;;;;34.45;16.05;;;;;;;;;;6254492;28;20124;-65
2022/01/03 06:39:18;;;;;;;23.92;15.32;;;;;;;;;;6254071;28;20516;-65
2022/01/03 06:42:19;;;;;;;24.35;15.60;;;;;;;;;;6251105;28;20321;-65
2022/01/03 06:45:21;;;;;;;24.00;15.18;;;;;;;;;;6250467;28;20127;-65
2022/01/03 06:48:23;;;;;;;24.23;14.80;;;;;;;;;;6250117;28;20114;-65
2022/01/03 06:51:25;;;;;;;25.90;14.68;;;;;;;;;;6254716;28;20191;-65
2022/01/03 06:54:30;;;;;;;27.92;16.40;;;;;;;;;;6259804;28;20045;-65
2022/01/03 06:57:31;;;;;;;25.90;15.02;;;;;;;;;;6258797;28;20045;-65
2022/01/03 07:00:33;;;;;;;28.92;15.40;;;;;;;;;;6255633;28;20175;-65
2022/01/03 07:03:35;;;;;;;32.83;16.23;;;;;;;;;;6253049;28;20049;-65
2022/01/03 07:06:37;;;;;;;27.42;15.25;;;;;;;;;;6255015;28;20128;-65
2022/01/03 07:09:40;;;;;;;29.13;16.88;;;;;;;;;;6257139;28;20049;-65
2022/01/03 07:12:41;;;;;;;28.30;16.88;;;;;;;;;;6256681;28;20065;-65
2022/01/03 07:19:06;;;;;;;33.88;17.52;;;;;;;;;;6256117;28;20410;-65
2022/01/03 07:22:08;;;;;;;28.77;18.30;;;;;;;;;;6260055;28;20049;-65
2022/01/03 07:25:11;;;;;;;30.45;17.42;;;;;;;;;;6257692;28;20172;-65
2022/01/03 07:28:13;;;;;;;28.40;16.70;;;;;;;;;;6254307;28;20175;-65
2022/01/03 07:31:15;;;;;;;29.48;16.48;;;;;;;;;;6256858;28;20520;-65
2022/01/03 07:34:17;;;;;;;27.08;16.15;;;;;;;;;;6257053;28;20049;-65
2022/01/03 07:37:18;;;;;;;27.38;15.93;;;;;;;;;;6257507;28;20098;-65
2022/01/03 07:40:22;;;;;;;25.38;15.25;;;;;;;;;;6257815;28;20045;-65
2022/01/03 07:43:23;;;;;;;21.90;14.90;;;;;;;;;;6253343;28;20133;-65
2022/01/03 07:46:25;;;;;;;20.90;14.45;;;;;;;;;;6258638;28;20417;-65
2022/01/03 07:49:26;;;;;;;24.45;14.55;;;;;;;;;;6263228;28;20498;-65
2022/01/03 07:52:28;;;;;;;24.45;14.70;;;;;;;;;;6262069;28;20105;-65
2022/01/03 07:55:32;;;;;;;20.45;14.80;;;;;;;;;;6258827;28;20128;-65
2022/01/03 07:58:33;;;;;;;23.03;14.97;;;;;;;;;;6260228;28;20525;-65
2022/01/03 08:01:35;;;;;;;23.70;14.75;;;;;;;;;;6256105;28;20052;-65
2022/01/03 08:04:37;;;;;;;20.70;14.43;;;;;;;;;;6258733;28;20465;-65
2022/01/03 08:07:38;;;;;;;22.75;14.73;;;;;;;;;;6254608;28;20496;-65
2022/01/03 08:10:42;;;;;;;23.27;13.52;;;;;;;;;;6261687;28;20184;-65
2022/01/03 08:13:44;;;;;;;21.83;13.55;;;;;;;;;;6257800;28;20052;-64
2022/01/03 08:16:46;;;;;;;22.52;14.05;;;;;;;;;;6260872;28;20275;-64
2022/01/03 08:19:47;;;;;;;21.17;13.40;;;;;;;;;;6259973;28;20119;-64
2022/01/03 08:22:49;;;;;;;19.75;13.23;;;;;;;;;;6256836;28;20538;-64
2022/01/03 08:25:52;;;;;;;19.88;13.38;;;;;;;;;;6260900;28;20168;-64
2022/01/03 08:28:53;;;;;;;20.05;13.05;;;;;;;;;;6260527;28;20148;-64
2022/01/03 08:31:55;;;;;;;19.70;13.20;;;;;;;;;;6256101;28;20096;-64
2022/01/03 08:34:57;;;;;;;20.45;12.98;;;;;;;;;;6258053;28;20184;-64
2022/01/03 08:37:59;;;;;;;17.15;12.00;;;;;;;;;;6257415;28;20115;-64
2022/01/03 08:41:02;;;;;;;20.75;12.93;;;;;;;;;;6254224;28;20072;-64
2022/01/03 08:44:04;;;;;;;18.02;12.77;;;;;;;;;;6258122;28;20120;-64
2022/01/03 08:47:06;;;;;;;20.85;12.77;;;;;;;;;;6255868;28;20061;-64
2022/01/03 08:50:08;;;;;;;21.65;13.00;;;;;;;;;;6253789;28;20053;-65
2022/01/03 08:53:11;;;;;;;19.67;12.43;;;;;;;;;;6259380;28;20114;-64
2022/01/03 08:56:14;;;;;;;19.70;12.52;;;;;;;;;;6255950;28;20064;-64
2022/01/03 08:59:16;;;;;;;17.73;11.93;;;;;;;;;;6255283;28;20124;-64
2022/01/03 09:02:17;;;;;;;18.52;12.13;;;;;;;;;;6254809;28;20515;-64
2022/01/03 09:05:19;;;;;;;15.73;11.45;;;;;;;;;;6260307;28;20171;-64
2022/01/03 09:08:22;;;;;;;16.98;11.88;;;;;;;;;;6254456;28;20124;-64
2022/01/03 09:11:24;;;;;;;19.33;12.25;;;;;;;;;;6258672;28;20040;-64
2022/01/03 09:14:26;;;;;;;17.85;11.68;;;;;;;;;;6259892;28;20060;-64
2022/01/03 09:17:27;;;;;;;16.83;12.02;;;;;;;;;;6261059;28;20247;-64
2022/01/03 09:20:29;;;;;;;19.15;11.95;;;;;;;;;;6259732;28;20128;-64
2022/01/03 09:23:35;;;;;;;17.67;11.75;;;;;;;;;;6257830;28;20547;-64
2022/01/03 09:29:56;;;;;;;16.60;11.07;;;;;;;;;;6255455;28;20056;-64
2022/01/03 09:32:58;;;;;;;19.23;12.40;;;;;;;;;;6259618;28;20045;-64
2022/01/03 09:35:59;;;;;;;15.63;11.50;;;;;;;;;;6250989;28;20128;-65
2022/01/03 09:39:02;;;;;;;20.17;11.88;;;;;;;;;;6254758;28;20128;-64
2022/01/03 09:42:09;;;;;;;18.20;11.80;;;;;;;;;;6256883;28;20137;-64
2022/01/03 09:45:12;;;;;;;16.55;11.80;;;;;;;;;;6260774;28;20144;-64
2022/01/03 09:48:15;;;;;;;19.00;12.02;;;;;;;;;;6259690;28;20059;-64
2022/01/03 09:51:16;;;;;;;21.08;12.50;;;;;;;;;;6257087;28;20135;-65
2022/01/03 09:54:21;;;;;;;18.85;12.35;;;;;;;;;;6256681;28;20136;-65
2022/01/03 09:57:24;;;;;;;20.50;13.18;;;;;;;;;;6258532;28;20037;-64
2022/01/03 10:00:27;;;;;;;19.23;12.35;;;;;;;;;;6256616;28;20176;-65
2022/01/03 10:03:28;;;;;;;19.65;12.60;;;;;;;;;;6252051;28;20535;-64
2022/01/03 10:06:31;;;;;;;21.98;13.15;;;;;;;;;;6256242;28;20053;-64
2022/01/03 10:09:32;;;;;;;20.00;13.38;;;;;;;;;;6263688;28;20048;-65
2022/01/03 10:12:37;;;;;;;19.60;12.98;;;;;;;;;;6262747;28;20405;-64
2022/01/03 10:15:38;;;;;;;19.15;12.95;;;;;;;;;;6260392;28;20092;-64
2022/01/03 10:18:40;;;;;;;20.25;13.10;;;;;;;;;;6258503;28;20191;-64
2022/01/03 10:21:43;;;;;;;22.52;14.10;;;;;;;;;;6256947;28;20602;-65
2022/01/03 10:24:45;;;;;;;22.17;13.87;;;;;;;;;;6260170;28;20049;-64
2022/01/03 10:27:51;;;;;;;19.77;12.63;;;;;;;;;;6255141;28;20147;-64
2022/01/03 10:30:52;;;;;;;22.98;14.43;;;;;;;;;;6258181;28;20049;-65
2022/01/03 10:34:06;;;;;;;21.50;14.15;;;;;;;;;;6258933;28;20135;-64
2022/01/03 10:37:13;;;;;;;21.73;13.83;;;;;;;;;;6264113;28;20149;-64
2022/01/03 10:40:21;;;;;;;21.38;13.43;;;;;;;;;;6263039;28;20476;-64
2022/01/03 10:43:24;;;;;;;22.88;14.95;;;;;;;;;;6257361;28;20042;-64
2022/01/03 10:46:27;;;;;;;20.42;13.45;;;;;;;;;;6254610;28;20536;-64
2022/01/03 10:49:29;;;;;;;20.85;14.00;;;;;;;;;;6250608;28;20088;-64
2022/01/03 10:52:33;;;;;;;22.55;13.90;;;;;;;;;;6252322;28;20128;-64
2022/01/03 10:55:34;;;;;;;24.52;14.27;;;;;;;;;;6253364;28;20053;-64
2022/01/03 10:58:37;;;;;;;23.05;14.25;;;;;;;;;;6260425;28;20131;-64
2022/01/03 11:01:40;;;;;;;22.50;14.45;;;;;;;;;;6257149;28;20075;-64
2022/01/03 11:04:49;;;;;;;21.50;14.00;;;;;;;;;;6257142;28;20049;-64
2022/01/03 11:11:34;;;;;;;23.42;14.48;;;;;;;;;;6254957;28;20045;-64
2022/01/03 11:14:39;;;;;;;22.60;14.27;;;;;;;;;;6254212;28;20077;-64
2022/01/03 11:17:42;;;;;;;23.13;14.65;;;;;;;;;;6263304;28;20056;-64
2022/01/03 11:20:46;;;;;;;22.38;14.65;;;;;;;;;;6269341;28;20512;-64
2022/01/03 11:23:50;;;;;;;21.83;14.37;;;;;;;;;;6265073;28;20505;-65
2022/01/03 11:26:52;;;;;;;25.35;14.95;;;;;;;;;;6250487;28;20487;-65
2022/01/03 11:29:55;;;;;;;23.13;14.27;;;;;;;;;;6250425;28;20075;-64
2022/01/03 11:33:00;;;;;;;19.27;13.23;;;;;;;;;;6259330;28;20077;-64
2022/01/03 11:36:02;;;;;;;20.80;13.93;;;;;;;;;;6254650;28;20064;-64
2022/01/03 11:39:07;;;;;;;22.17;14.27;;;;;;;;;;6254350;28;20060;-65
2022/01/03 11:42:11;;;;;;;20.98;13.82;;;;;;;;;;6250813;28;20136;-65
2022/01/03 11:45:14;;;;;;;21.17;14.80;;;;;;;;;;6252488;28;20413;-64
2022/01/03 11:48:16;;;;;;;22.77;14.90;;;;;;;;;;6254299;28;20501;-64
2022/01/03 11:51:18;;;;;;;23.35;15.05;;;;;;;;;;6254715;28;20106;-64
2022/01/03 11:54:20;;;;;;;24.17;14.75;;;;;;;;;;6251080;28;20065;-64
2022/01/03 11:57:33;;;;;;;21.30;14.68;;;;;;;;;;6255314;28;20077;-65
2022/01/03 12:04:16;;;;;;;24.42;15.65;;;;;;;;;;6254577;28;20417;-65
2022/01/03 12:07:17;;;;;;;21.48;14.88;;;;;;;;;;6247771;28;20052;-65
2022/01/03 12:10:19;;;;;;;24.45;15.45;;;;;;;;;;6251855;28;20053;-64
2022/01/03 12:13:21;;;;;;;23.17;15.35;;;;;;;;;;6245634;28;20156;-64
2022/01/03 12:16:47;;;;;;;26.05;16.45;;;;;;;;;;6245484;28;20056;-64
2022/01/03 12:19:49;;;;;;;23.85;14.82;;;;;;;;;;6249837;28;20135;-64
2022/01/03 12:22:52;;;;;;;26.98;16.65;;;;;;;;;;6250829;28;20052;-65
2022/01/03 12:26:07;;;;;;;27.02;16.55;;;;;;;;;;6256392;28;20056;-64
2022/01/03 12:29:10;;;;;;;28.95;17.35;;;;;;;;;;6252597;28;20123;-64
2022/01/03 12:32:14;;;;;;;32.65;17.10;;;;;;;;;;6262726;28;20627;-65
2022/01/03 12:35:21;;;;;;;26.08;16.77;;;;;;;;;;6256038;28;20084;-65
2022/01/03 12:38:28;;;;;;;26.65;16.83;;;;;;;;;;6262615;28;20185;-64
2022/01/03 12:41:44;;;;;;;28.27;16.95;;;;;;;;;;6267245;28;20561;-64
2022/01/03 12:44:49;;;;;;;31.30;17.83;;;;;;;;;;6253652;28;20140;-64
2022/01/03 12:47:52;;;;;;;30.73;17.70;;;;;;;;;;6252697;28;20048;-65
2022/01/03 12:51:14;;;;;;;28.70;17.05;;;;;;;;;;6260235;28;20171;-65
2022/01/03 12:54:42;;;;;;;32.28;17.67;;;;;;;;;;6261367;28;20042;-64
2022/01/03 12:57:44;;;;;;;30.25;18.35;;;;;;;;;;6257567;28;20038;-64
2022/01/03 13:00:47;;;;;;;34.17;18.25;;;;;;;;;;6259665;28;20407;-64
2022/01/03 13:03:51;;;;;;;32.38;18.38;;;;;;;;;;6255128;28;20404;-64
2022/01/03 13:07:02;;;;;;;31.20;18.80;;;;;;;;;;6263497;28;20045;-65
2022/01/03 13:10:04;;;;;;;32.03;17.60;;;;;;;;;;6259179;28;20356;-64
2022/01/03 13:13:06;;;;;;;32.97;18.80;;;;;;;;;;6255218;28;20114;-65
2022/01/03 13:16:17;;;;;;;31.42;19.58;;;;;;;;;;6257207;28;20127;-64
2022/01/03 13:19:22;;;;;;;32.47;18.75;;;;;;;;;;6253936;28;20046;-64
2022/01/03 13:22:26;;;;;;;30.00;18.08;;;;;;;;;;6260022;28;20076;-64
2022/01/03 13:25:28;;;;;;;33.63;18.45;;;;;;;;;;6256159;28;20462;-64
2022/01/03 13:28:29;;;;;;;30.58;17.70;;;;;;;;;;6258133;28;20508;-64
2022/01/03 13:31:31;;;;;;;34.42;19.88;;;;;;;;;;6256507;28;20142;-64
2022/01/03 13:34:35;;;;;;;33.13;18.77;;;;;;;;;;6259016;28;20033;-64
2022/01/03 13:37:36;;;;;;;31.05;18.23;;;;;;;;;;6252052;28;20151;-64
2022/01/03 13:40:38;;;;;;;27.80;18.15;;;;;;;;;;6256448;28;20191;-64
2022/01/03 13:43:43;;;;;;;30.27;18.85;;;;;;;;;;6253237;28;20125;-64
2022/01/03 13:50:13;;;;;;;32.38;19.35;;;;;;;;;;6259127;28;20081;-64
2022/01/03 13:53:15;;;;;;;35.53;20.02;;;;;;;;;;6256305;28;20128;-65
2022/01/03 13:56:17;;;;;;;36.85;20.33;;;;;;;;;;6256982;28;20535;-65
2022/01/03 13:59:19;;;;;;;33.20;19.30;;;;;;;;;;6258289;28;20068;-65
2022/01/03 14:02:21;;;;;;;32.40;19.52;;;;;;;;;;6259293;28;20140;-65
2022/01/03 14:05:24;;;;;;;32.45;18.98;;;;;;;;;;6256212;28;20299;-64
2022/01/03 14:08:38;;;;;;;32.65;20.20;;;;;;;;;;6257597;28;20192;-64
2022/01/03 14:11:39;;;;;;;36.22;19.38;;;;;;;;;;6252819;28;20076;-64
2022/01/03 14:14:44;;;;;;;36.40;21.30;;;;;;;;;;6258347;28;20111;-64
2022/01/03 14:17:49;;;;;;;43.97;23.05;;;;;;;;;;6259467;28;20152;-64
2022/01/03 14:21:05;;;;;;;37.50;21.77;;;;;;;;;;6259850;28;20060;-65
2022/01/03 14:24:09;;;;;;;38.38;21.95;;;;;;;;;;6263071;28;20432;-64
2022/01/03 14:27:10;;;;;;;42.92;22.77;;;;;;;;;;6250909;28;20489;-64
2022/01/03 14:30:15;;;;;;;36.00;21.13;;;;;;;;;;6257085;28;20102;-64
2022/01/03 14:33:16;;;;;;;;;;;;;;;;;;6257052;28;20449;-64
2022/01/03 14:36:20;;;;;;;36.10;21.25;;;;;;;;;;6257814;28;20381;-64
2022/01/03 14:39:21;;;;;;;45.17;23.27;;;;;;;;;;6249763;28;20081;-64
2022/01/03 14:42:26;;;;;;;42.97;24.17;;;;;;;;;;6248396;28;20140;-64
2022/01/03 14:45:32;;;;;;;40.90;22.80;;;;;;;;;;6262646;28;20063;-64
2022/01/03 14:48:34;;;;;;;40.28;22.88;;;;;;;;;;6264475;28;20077;-64
2022/01/03 14:51:39;;;;;;;39.83;21.92;;;;;;;;;;6261693;28;20140;-64
2022/01/03 14:54:50;;;;;;;41.72;22.80;;;;;;;;;;6261412;28;20073;-64
2022/01/03 14:57:52;;;;;;;41.20;21.92;;;;;;;;;;6254008;28;20079;-64
2022/01/03 15:00:53;;;;;;;39.03;22.73;;;;;;;;;;6246435;28;20049;-64
2022/01/03 15:03:55;;;;;;;41.08;21.75;;;;;;;;;;6253521;28;20505;-64
2022/01/03 15:07:09;;;;;;;43.33;23.30;;;;;;;;;;6254804;28;20148;-65
2022/01/03 15:10:13;;;;;;;44.60;24.05;;;;;;;;;;6256696;28;20060;-64
2022/01/03 15:13:16;;;;;;;45.72;24.73;;;;;;;;;;6259756;28;20045;-64
2022/01/03 15:16:18;;;;;;;47.90;25.15;;;;;;;;;;6260246;28;20052;-64
2022/01/03 15:19:20;;;;;;;49.58;25.13;;;;;;;;;;6262033;28;20048;-64
2022/01/03 15:22:23;;;;;;;46.47;24.70;;;;;;;;;;6260822;28;20119;-64
2022/01/03 15:25:25;;;;;;;45.15;24.35;;;;;;;;;;6254320;28;20532;-64
2022/01/03 15:28:27;;;;;;;49.17;26.08;;;;;;;;;;6252441;28;20513;-64
2022/01/03 15:31:28;;;;;;;43.15;24.13;;;;;;;;;;6255283;28;20522;-64
2022/01/03 15:34:30;;;;;;;47.83;25.73;;;;;;;;;;6259598;28;20131;-64
2022/01/03 15:37:33;;;;;;;47.28;24.20;;;;;;;;;;6252714;28;20049;-64
2022/01/03 15:40:34;;;;;;;48.92;25.40;;;;;;;;;;6254267;28;20501;-64
2022/01/03 15:43:36;;;;;;;47.05;25.55;;;;;;;;;;6259954;28;20195;-65
2022/01/03 15:46:40;;;;;;;48.40;26.17;;;;;;;;;;6259914;28;20136;-64
2022/01/03 15:49:42;;;;;;;51.95;26.30;;;;;;;;;;6251440;28;20132;-64
2022/01/03 15:52:45;;;;;;;49.13;25.85;;;;;;;;;;6253202;28;20183;-64
2022/01/03 15:55:46;;;;;;;45.85;24.98;;;;;;;;;;6251026;28;20131;-64
2022/01/03 15:58:48;;;;;;;49.65;26.77;;;;;;;;;;6250104;28;20077;-64
2022/01/03 16:01:49;;;;;;;52.70;27.40;;;;;;;;;;6255785;28;20120;-64
2022/01/03 16:04:51;;;;;;;51.53;26.13;;;;;;;;;;6252661;28;20520;-65
2022/01/03 16:07:54;;;;;;;48.88;25.20;;;;;;;;;;6256885;28;20141;-64
2022/01/03 16:10:56;;;;;;;46.92;25.02;;;;;;;;;;6262537;28;20183;-64
2022/01/03 16:13:57;;;;;;;48.85;24.63;;;;;;;;;;6259849;28;20523;-64
2022/01/03 16:16:59;;;;;;;52.30;25.33;;;;;;;;;;6258316;28;20200;-64
2022/01/03 16:20:01;;;;;;;50.28;26.20;;;;;;;;;;6258785;28;20611;-64
2022/01/03 16:23:04;;;;;;;43.55;23.92;;;;;;;;;;6257820;28;20200;-65
2022/01/03 16:26:05;;;;;;;43.92;25.30;;;;;;;;;;6256269;28;20119;-64
2022/01/03 16:29:11;;;;;;;49.97;25.75;;;;;;;;;;6254719;28;20110;-65
2022/01/03 16:32:13;;;;;;;48.40;25.73;;;;;;;;;;6256770;28;20513;-64
2022/01/03 16:35:16;;;;;;;45.53;25.15;;;;;;;;;;6258689;28;20560;-64
2022/01/03 16:38:19;;;;;;;50.92;25.85;;;;;;;;;;6256391;28;20053;-64
2022/01/03 16:41:20;;;;;;;51.10;26.38;;;;;;;;;;6255129;28;20128;-65
2022/01/03 16:44:22;;;;;;;53.45;27.27;;;;;;;;;;6256296;28;20049;-64
2022/01/03 16:47:24;;;;;;;49.22;26.63;;;;;;;;;;6252292;28;20589;-65
2022/01/03 16:50:25;;;;;;;49.55;26.25;;;;;;;;;;6256294;28;20069;-65
2022/01/03 16:53:28;;;;;;;49.75;26.10;;;;;;;;;;6254962;28;20445;-64
2022/01/03 16:56:30;;;;;;;48.67;27.13;;;;;;;;;;6255618;28;20534;-64
2022/01/03 16:59:32;;;;;;;50.85;26.60;;;;;;;;;;6254063;28;20124;-64
2022/01/03 17:02:33;;;;;;;49.90;26.30;;;;;;;;;;6255820;28;20053;-65
2022/01/03 17:05:35;;;;;;;42.90;24.80;;;;;;;;;;6253760;28;20122;-64
2022/01/03 17:08:38;;;;;;;46.97;24.85;;;;;;;;;;6258240;28;20222;-65
2022/01/03 17:11:41;;;;;;;46.13;24.88;;;;;;;;;;6252331;28;20403;-65
2022/01/03 17:14:42;;;;;;;42.60;25.60;;;;;;;;;;6255055;28;20048;-64
2022/01/03 17:17:44;;;;;;;49.42;25.40;;;;;;;;;;6254603;28;20056;-65
2022/01/03 17:20:46;;;;;;;45.97;25.35;;;;;;;;;;6255868;28;20140;-65
2022/01/03 17:23:53;;;;;;;44.65;24.60;;;;;;;;;;6254276;28;20045;-64
2022/01/03 17:26:55;;;;;;;50.00;24.45;;;;;;;;;;6256248;28;20536;-64
2022/01/03 17:29:57;;;;;;;46.78;25.35;;;;;;;;;;6256124;28;20493;-64
2022/01/03 17:32:58;;;;;;;49.30;24.55;;;;;;;;;;6260518;28;20064;-65
2022/01/03 17:36:00;;;;;;;48.38;26.67;;;;;;;;;;6257707;28;20061;-64
2022/01/03 17:39:03;;;;;;;51.30;25.40;;;;;;;;;;6254905;28;20041;-65
2022/01/03 17:42:05;;;;;;;50.40;26.85;;;;;;;;;;6255481;28;20533;-64
2022/01/03 17:45:08;;;;;;;52.47;26.98;;;;;;;;;;6250656;28;20127;-65
2022/01/03 17:48:10;;;;;;;47.10;26.55;;;;;;;;;;6259204;28;20130;-65
2022/01/03 17:51:13;;;;;;;54.03;27.65;;;;;;;;;;6252444;28;20124;-64
2022/01/03 17:54:16;;;;;;;46.67;27.50;;;;;;;;;;6257675;28;20049;-65
2022/01/03 17:57:18;;;;;;;49.35;26.33;;;;;;;;;;6254926;28;20187;-64
2022/01/03 18:00:21;;;;;;;49.17;25.80;;;;;;;;;;6250162;28;20148;-64
2022/01/03 18:03:22;;;;;;;55.45;27.00;;;;;;;;;;6252399;28;20052;-64
2022/01/03 18:06:24;;;;;;;48.80;25.15;;;;;;;;;;6257495;28;20126;-64